sensor_id;sensor_type;location;lat;lon;timestamp;pressure;altitude;pressure_sealevel;temperature;humidity
56594;BME280;42474;51.660;5.824;2023-01-28T00:03:03;102870.0;;;4.3;75.5
56594;BME280;42474;51.660;5.824;2023-01-28T00:08:03;102860.0;;;4.1;75.0
56594;BME280;42474;51.660;5.824;2023-01-28T00:13:03;102860.0;;;4.2;75.0
56594;BME280;42474;51.660;5.824;2023-01-28T00:18:03;102860.0;;;4.3;74.5
56594;BME280;42474;51.660;5.824;2023-01-28T00:23:03;102870.0;;;4.2;74.5
56594;BME280;42474;51.660;5.824;2023-01-28T00:28:03;102870.0;;;4.2;74.0
56594;BME280;42474;51.660;5.824;2023-01-28T00:33:03;102870.0;;;4.1;73.5
56594;BME280;42474;51.660;5.824;2023-01-28T00:38:03;102880.0;;;4.1;73.5
56594;BME280;42474;51.660;5.824;2023-01-28T00:43:03;102880.0;;;4.1;73.5
56594;BME280;42474;51.660;5.824;2023-01-28T00:48:04;102890.0;;;4.1;73.0
56594;BME280;42474;51.660;5.824;2023-01-28T00:53:03;102880.0;;;4.0;73.0
56594;BME280;42474;51.660;5.824;2023-01-28T00:58:03;102900.0;;;4.0;73.0
56594;BME280;42474;51.660;5.824;2023-01-28T01:03:03;102890.0;;;3.9;72.5
56594;BME280;42474;51.660;5.824;2023-01-28T01:08:04;102890.0;;;3.8;73.0
56594;BME280;42474;51.660;5.824;2023-01-28T01:13:04;102880.0;;;3.8;72.5
56594;BME280;42474;51.660;5.824;2023-01-28T01:18:03;102890.0;;;3.7;72.0
56594;BME280;42474;51.660;5.824;2023-01-28T01:23:03;102890.0;;;3.8;71.5
56594;BME280;42474;51.660;5.824;2023-01-28T01:28:03;102880.0;;;3.8;72.0
56594;BME280;42474;51.660;5.824;2023-01-28T01:33:03;102880.0;;;3.8;71.5
56594;BME280;42474;51.660;5.824;2023-01-28T01:38:03;102880.0;;;3.8;71.5
56594;BME280;42474;51.660;5.824;2023-01-28T01:43:15;102900.0;;;3.9;72.0
56594;BME280;42474;51.660;5.824;2023-01-28T01:48:16;102900.0;;;3.9;72.5
56594;BME280;42474;51.660;5.824;2023-01-28T01:53:12;102900.0;;;3.8;71.5
56594;BME280;42474;51.660;5.824;2023-01-28T01:58:08;102890.0;;;3.9;71.5
56594;BME280;42474;51.660;5.824;2023-01-28T02:03:03;102900.0;;;3.8;71.5
56594;BME280;42474;51.660;5.824;2023-01-28T02:08:04;102900.0;;;3.8;71.0
56594;BME280;42474;51.660;5.824;2023-01-28T02:13:03;102890.0;;;3.8;72.0
56594;BME280;42474;51.660;5.824;2023-01-28T02:18:03;102900.0;;;3.8;70.5
56594;BME280;42474;51.660;5.824;2023-01-28T02:24:03;102890.0;;;3.7;70.5
56594;BME280;42474;51.660;5.824;2023-01-28T02:29:21;102890.0;;;3.8;71.0
56594;BME280;42474;51.660;5.824;2023-01-28T02:33:40;102900.0;;;3.8;71.0
56594;BME280;42474;51.660;5.824;2023-01-28T02:38:10;102890.0;;;3.9;71.5
56594;BME280;42474;51.660;5.824;2023-01-28T02:43:03;102890.0;;;4.0;71.5
56594;BME280;42474;51.660;5.824;2023-01-28T02:48:03;102890.0;;;4.0;71.5
56594;BME280;42474;51.660;5.824;2023-01-28T02:53:23;102900.0;;;3.9;70.5
56594;BME280;42474;51.660;5.824;2023-01-28T02:59:00;102890.0;;;3.9;70.5
56594;BME280;42474;51.660;5.824;2023-01-28T03:03:27;102900.0;;;3.9;70.0
56594;BME280;42474;51.660;5.824;2023-01-28T03:08:05;102900.0;;;3.9;70.0
56594;BME280;42474;51.660;5.824;2023-01-28T03:13:03;102910.0;;;3.9;69.5
56594;BME280;42474;51.660;5.824;2023-01-28T03:18:07;102910.0;;;3.9;70.0
56594;BME280;42474;51.660;5.824;2023-01-28T03:23:10;102900.0;;;3.8;70.5
56594;BME280;42474;51.660;5.824;2023-01-28T03:28:12;102900.0;;;3.8;71.0
56594;BME280;42474;51.660;5.824;2023-01-28T03:33:04;102900.0;;;3.9;71.0
56594;BME280;42474;51.660;5.824;2023-01-28T03:38:04;102910.0;;;3.8;71.5
56594;BME280;42474;51.660;5.824;2023-01-28T03:43:03;102910.0;;;3.8;71.5
56594;BME280;42474;51.660;5.824;2023-01-28T03:48:04;102910.0;;;3.7;71.5
56594;BME280;42474;51.660;5.824;2023-01-28T03:53:03;102900.0;;;3.7;71.0
56594;BME280;42474;51.660;5.824;2023-01-28T03:58:04;102910.0;;;3.7;71.0
56594;BME280;42474;51.660;5.824;2023-01-28T04:03:03;102910.0;;;3.6;69.0
56594;BME280;42474;51.660;5.824;2023-01-28T04:08:03;102920.0;;;3.6;69.0
56594;BME280;42474;51.660;5.824;2023-01-28T04:13:04;102920.0;;;3.5;68.0
56594;BME280;42474;51.660;5.824;2023-01-28T04:18:03;102930.0;;;3.5;68.0
56594;BME280;42474;51.660;5.824;2023-01-28T04:23:04;102930.0;;;3.6;69.0
56594;BME280;42474;51.660;5.824;2023-01-28T04:28:03;102930.0;;;3.6;69.0
56594;BME280;42474;51.660;5.824;2023-01-28T04:33:03;102920.0;;;3.7;69.5
56594;BME280;42474;51.660;5.824;2023-01-28T04:38:04;102920.0;;;3.7;69.0
56594;BME280;42474;51.660;5.824;2023-01-28T04:43:03;102920.0;;;3.7;68.5
56594;BME280;42474;51.660;5.824;2023-01-28T04:48:03;102930.0;;;3.7;68.5
56594;BME280;42474;51.660;5.824;2023-01-28T04:53:03;102930.0;;;3.5;68.5
56594;BME280;42474;51.660;5.824;2023-01-28T04:58:03;102930.0;;;3.5;68.5
56594;BME280;42474;51.660;5.824;2023-01-28T05:03:04;102940.0;;;3.6;69.0
56594;BME280;42474;51.660;5.824;2023-01-28T05:08:03;102940.0;;;3.5;69.5
56594;BME280;42474;51.660;5.824;2023-01-28T05:13:03;102930.0;;;3.6;70.0
56594;BME280;42474;51.660;5.824;2023-01-28T05:18:03;102950.0;;;3.5;70.0
56594;BME280;42474;51.660;5.824;2023-01-28T05:23:03;102940.0;;;3.4;70.0
56594;BME280;42474;51.660;5.824;2023-01-28T05:28:04;102950.0;;;3.3;71.0
56594;BME280;42474;51.660;5.824;2023-01-28T05:33:04;102940.0;;;3.4;71.0
56594;BME280;42474;51.660;5.824;2023-01-28T05:38:04;102920.0;;;3.4;70.5
56594;BME280;42474;51.660;5.824;2023-01-28T05:43:03;102920.0;;;3.4;69.0
56594;BME280;42474;51.660;5.824;2023-01-28T05:48:04;102930.0;;;3.3;68.5
56594;BME280;42474;51.660;5.824;2023-01-28T05:53:04;102940.0;;;3.3;69.0
56594;BME280;42474;51.660;5.824;2023-01-28T05:58:03;102940.0;;;3.3;69.0
56594;BME280;42474;51.660;5.824;2023-01-28T06:03:03;102940.0;;;3.4;69.5
56594;BME280;42474;51.660;5.824;2023-01-28T06:08:04;102950.0;;;3.3;69.5
56594;BME280;42474;51.660;5.824;2023-01-28T06:13:04;102950.0;;;3.2;68.5
56594;BME280;42474;51.660;5.824;2023-01-28T06:18:03;102950.0;;;3.1;68.0
56594;BME280;42474;51.660;5.824;2023-01-28T06:23:04;102950.0;;;3.1;68.0
56594;BME280;42474;51.660;5.824;2023-01-28T06:28:03;102950.0;;;3.0;67.0
56594;BME280;42474;51.660;5.824;2023-01-28T06:33:03;102950.0;;;2.9;67.0
56594;BME280;42474;51.660;5.824;2023-01-28T06:38:03;102960.0;;;2.9;67.5
56594;BME280;42474;51.660;5.824;2023-01-28T06:43:04;102960.0;;;2.9;68.0
56594;BME280;42474;51.660;5.824;2023-01-28T06:48:04;102960.0;;;2.9;67.5
56594;BME280;42474;51.660;5.824;2023-01-28T06:53:04;102950.0;;;2.9;68.0
56594;BME280;42474;51.660;5.824;2023-01-28T06:58:03;102960.0;;;2.8;68.0
56594;BME280;42474;51.660;5.824;2023-01-28T07:03:04;102970.0;;;2.5;67.5
56594;BME280;42474;51.660;5.824;2023-01-28T07:08:04;102970.0;;;2.4;68.5
56594;BME280;42474;51.660;5.824;2023-01-28T07:13:04;102980.0;;;2.4;68.5
56594;BME280;42474;51.660;5.824;2023-01-28T07:18:04;102990.0;;;2.5;68.5
56594;BME280;42474;51.660;5.824;2023-01-28T07:23:03;102990.0;;;2.6;68.5
56594;BME280;42474;51.660;5.824;2023-01-28T07:28:04;102990.0;;;2.6;68.0
56594;BME280;42474;51.660;5.824;2023-01-28T07:33:04;103010.0;;;2.6;68.0
56594;BME280;42474;51.660;5.824;2023-01-28T07:38:04;103010.0;;;2.5;68.0
56594;BME280;42474;51.660;5.824;2023-01-28T07:43:04;103010.0;;;2.6;68.5
56594;BME280;42474;51.660;5.824;2023-01-28T07:48:10;103020.0;;;2.8;68.5
56594;BME280;42474;51.660;5.824;2023-01-28T07:53:04;103020.0;;;2.8;68.5
56594;BME280;42474;51.660;5.824;2023-01-28T07:58:05;103020.0;;;2.8;68.5
56594;BME280;42474;51.660;5.824;2023-01-28T08:03:05;103030.0;;;2.7;67.0
56594;BME280;42474;51.660;5.824;2023-01-28T08:08:04;103030.0;;;2.6;67.0
56594;BME280;42474;51.660;5.824;2023-01-28T08:13:04;103020.0;;;2.7;67.5
56594;BME280;42474;51.660;5.824;2023-01-28T08:18:05;103030.0;;;2.7;67.5
56594;BME280;42474;51.660;5.824;2023-01-28T08:23:08;103040.0;;;2.7;68.5
56594;BME280;42474;51.660;5.824;2023-01-28T08:28:05;103050.0;;;2.8;68.5
56594;BME280;42474;51.660;5.824;2023-01-28T08:33:05;103060.0;;;2.8;68.0
56594;BME280;42474;51.660;5.824;2023-01-28T08:38:05;103060.0;;;2.9;68.5
56594;BME280;42474;51.660;5.824;2023-01-28T08:43:04;103080.0;;;3.0;68.5
56594;BME280;42474;51.660;5.824;2023-01-28T08:48:05;103060.0;;;2.9;68.0
56594;BME280;42474;51.660;5.824;2023-01-28T08:53:05;103070.0;;;3.0;68.0
56594;BME280;42474;51.660;5.824;2023-01-28T08:58:05;103060.0;;;3.0;68.0
56594;BME280;42474;51.660;5.824;2023-01-28T09:03:04;103090.0;;;3.0;67.5
56594;BME280;42474;51.660;5.824;2023-01-28T09:08:05;103090.0;;;3.0;68.0
56594;BME280;42474;51.660;5.824;2023-01-28T09:13:04;103090.0;;;3.0;67.5
56594;BME280;42474;51.660;5.824;2023-01-28T09:18:04;103090.0;;;3.1;67.5
56594;BME280;42474;51.660;5.824;2023-01-28T09:23:04;103100.0;;;3.0;67.0
56594;BME280;42474;51.660;5.824;2023-01-28T09:28:04;103110.0;;;3.0;67.5
56594;BME280;42474;51.660;5.824;2023-01-28T09:33:04;103100.0;;;3.1;67.5
56594;BME280;42474;51.660;5.824;2023-01-28T09:38:04;103100.0;;;3.1;67.0
56594;BME280;42474;51.660;5.824;2023-01-28T09:44:04;103110.0;;;3.2;67.5
56594;BME280;42474;51.660;5.824;2023-01-28T09:48:07;103110.0;;;3.3;67.5
56594;BME280;42474;51.660;5.824;2023-01-28T09:53:10;103110.0;;;3.3;67.5
56594;BME280;42474;51.660;5.824;2023-01-28T09:58:04;103110.0;;;3.3;68.0
56594;BME280;42474;51.660;5.824;2023-01-28T10:03:54;103120.0;;;3.4;67.5
56594;BME280;42474;51.660;5.824;2023-01-28T10:09:34;103130.0;;;3.4;66.5
56594;BME280;42474;51.660;5.824;2023-01-28T10:15:17;103130.0;;;3.3;67.0
56594;BME280;42474;51.660;5.824;2023-01-28T10:18:14;103130.0;;;3.3;67.5
56594;BME280;42474;51.660;5.824;2023-01-28T10:23:15;103140.0;;;3.4;67.5
56594;BME280;42474;51.660;5.824;2023-01-28T10:28:13;103140.0;;;3.4;67.0
56594;BME280;42474;51.660;5.824;2023-01-28T10:33:15;103140.0;;;3.3;67.0
56594;BME280;42474;51.660;5.824;2023-01-28T10:38:08;103130.0;;;3.1;66.0
56594;BME280;42474;51.660;5.824;2023-01-28T10:43:04;103140.0;;;3.1;66.0
56594;BME280;42474;51.660;5.824;2023-01-28T10:48:07;103130.0;;;3.1;66.0
56594;BME280;42474;51.660;5.824;2023-01-28T10:53:05;103130.0;;;3.1;66.0
56594;BME280;42474;51.660;5.824;2023-01-28T10:58:04;103130.0;;;3.0;66.0
56594;BME280;42474;51.660;5.824;2023-01-28T11:03:04;103120.0;;;3.1;67.0
56594;BME280;42474;51.660;5.824;2023-01-28T11:08:08;103130.0;;;3.2;66.5
56594;BME280;42474;51.660;5.824;2023-01-28T11:13:05;103110.0;;;3.1;67.0
56594;BME280;42474;51.660;5.824;2023-01-28T11:18:05;103100.0;;;3.2;67.0
56594;BME280;42474;51.660;5.824;2023-01-28T11:23:04;103090.0;;;3.2;67.0
56594;BME280;42474;51.660;5.824;2023-01-28T11:28:13;103090.0;;;3.3;66.5
56594;BME280;42474;51.660;5.824;2023-01-28T11:33:20;103080.0;;;3.4;67.0
56594;BME280;42474;51.660;5.824;2023-01-28T11:38:16;103070.0;;;3.6;66.5
56594;BME280;42474;51.660;5.824;2023-01-28T11:43:07;103060.0;;;3.4;66.0
56594;BME280;42474;51.660;5.824;2023-01-28T11:48:51;103060.0;;;3.4;66.5
56594;BME280;42474;51.660;5.824;2023-01-28T11:54:09;103050.0;;;3.7;66.5
56594;BME280;42474;51.660;5.824;2023-01-28T12:00:31;103030.0;;;3.9;66.0
56594;BME280;42474;51.660;5.824;2023-01-28T12:06:21;103000.0;;;4.0;65.0
56594;BME280;42474;51.660;5.824;2023-01-28T12:11:37;102980.0;;;4.1;64.5
56594;BME280;42474;51.660;5.824;2023-01-28T12:18:12;102980.0;;;4.1;64.5
56594;BME280;42474;51.660;5.824;2023-01-28T12:23:11;102980.0;;;4.2;65.0
56594;BME280;42474;51.660;5.824;2023-01-28T12:29:24;102980.0;;;4.3;65.0
56594;BME280;42474;51.660;5.824;2023-01-28T12:35:45;103000.0;;;4.3;64.0
56594;BME280;42474;51.660;5.824;2023-01-28T12:41:15;102990.0;;;4.3;64.0
56594;BME280;42474;51.660;5.824;2023-01-28T12:44:53;103010.0;;;4.4;64.0
56594;BME280;42474;51.660;5.824;2023-01-28T12:48:21;103010.0;;;4.4;63.5
56594;BME280;42474;51.660;5.824;2023-01-28T12:51:56;103020.0;;;4.4;63.5
56594;BME280;42474;51.660;5.824;2023-01-28T12:55:57;103010.0;;;4.5;63.0
56594;BME280;42474;51.660;5.824;2023-01-28T12:58:06;103020.0;;;4.6;63.5
56594;BME280;42474;51.660;5.824;2023-01-28T13:03:26;103020.0;;;4.7;63.0
56594;BME280;42474;51.660;5.824;2023-01-28T13:08:09;103010.0;;;4.6;63.0
56594;BME280;42474;51.660;5.824;2023-01-28T13:13:05;103010.0;;;4.8;63.5
56594;BME280;42474;51.660;5.824;2023-01-28T13:18:04;103010.0;;;4.8;62.5
56594;BME280;42474;51.660;5.824;2023-01-28T13:23:22;103000.0;;;4.9;63.5
56594;BME280;42474;51.660;5.824;2023-01-28T13:28:23;103000.0;;;5.0;63.5
56594;BME280;42474;51.660;5.824;2023-01-28T13:33:26;103000.0;;;5.1;63.0
56594;BME280;42474;51.660;5.824;2023-01-28T13:38:07;102990.0;;;5.1;62.5
56594;BME280;42474;51.660;5.824;2023-01-28T13:43:27;102980.0;;;5.1;62.5
56594;BME280;42474;51.660;5.824;2023-01-28T13:48:21;102960.0;;;5.1;62.5
56594;BME280;42474;51.660;5.824;2023-01-28T13:53:15;102950.0;;;5.1;62.5
56594;BME280;42474;51.660;5.824;2023-01-28T13:59:47;102930.0;;;5.2;62.5
56594;BME280;42474;51.660;5.824;2023-01-28T14:06:59;102910.0;;;5.2;62.0
56594;BME280;42474;51.660;5.824;2023-01-28T14:13:20;102910.0;;;5.1;61.5
56594;BME280;42474;51.660;5.824;2023-01-28T14:17:55;102930.0;;;5.1;62.0
56594;BME280;42474;51.660;5.824;2023-01-28T14:19:25;102950.0;;;5.0;61.5
56594;BME280;42474;51.660;5.824;2023-01-28T14:23:14;102950.0;;;5.0;62.5
56594;BME280;42474;51.660;5.824;2023-01-28T14:28:05;102950.0;;;5.1;62.5
56594;BME280;42474;51.660;5.824;2023-01-28T14:33:08;102950.0;;;5.3;63.0
56594;BME280;42474;51.660;5.824;2023-01-28T14:38:11;102960.0;;;5.3;63.0
56594;BME280;42474;51.660;5.824;2023-01-28T14:43:07;102970.0;;;5.3;62.5
56594;BME280;42474;51.660;5.824;2023-01-28T14:48:36;102970.0;;;5.4;63.0
56594;BME280;42474;51.660;5.824;2023-01-28T14:54:46;102970.0;;;5.4;63.0
56594;BME280;42474;51.660;5.824;2023-01-28T14:59:35;102970.0;;;5.3;63.0
56594;BME280;42474;51.660;5.824;2023-01-28T15:03:08;102970.0;;;5.3;63.0
56594;BME280;42474;51.660;5.824;2023-01-28T15:08:04;102970.0;;;5.1;63.5
56594;BME280;42474;51.660;5.824;2023-01-28T15:13:09;102970.0;;;5.1;63.5
56594;BME280;42474;51.660;5.824;2023-01-28T15:18:09;102980.0;;;5.1;64.0
56594;BME280;42474;51.660;5.824;2023-01-28T15:23:06;102960.0;;;5.0;63.5
56594;BME280;42474;51.660;5.824;2023-01-28T15:28:04;102980.0;;;4.9;63.0
56594;BME280;42474;51.660;5.824;2023-01-28T15:33:12;103000.0;;;4.9;63.5
56594;BME280;42474;51.660;5.824;2023-01-28T15:38:04;103000.0;;;4.8;63.0
56594;BME280;42474;51.660;5.824;2023-01-28T15:43:04;103020.0;;;4.7;63.5
56594;BME280;42474;51.660;5.824;2023-01-28T15:48:05;103020.0;;;4.7;63.5
56594;BME280;42474;51.660;5.824;2023-01-28T15:53:07;103030.0;;;4.6;63.5
56594;BME280;42474;51.660;5.824;2023-01-28T15:58:18;103040.0;;;4.5;64.0
56594;BME280;42474;51.660;5.824;2023-01-28T16:03:09;103030.0;;;4.5;64.0
56594;BME280;42474;51.660;5.824;2023-01-28T16:08:09;103030.0;;;4.4;64.5
56594;BME280;42474;51.660;5.824;2023-01-28T16:13:05;103040.0;;;4.3;64.5
56594;BME280;42474;51.660;5.824;2023-01-28T16:18:04;103010.0;;;4.1;64.5
56594;BME280;42474;51.660;5.824;2023-01-28T16:23:16;103010.0;;;4.0;65.0
56594;BME280;42474;51.660;5.824;2023-01-28T16:28:12;103010.0;;;3.9;65.0
56594;BME280;42474;51.660;5.824;2023-01-28T16:33:04;103030.0;;;3.7;65.0
56594;BME280;42474;51.660;5.824;2023-01-28T16:38:04;103040.0;;;3.6;65.5
56594;BME280;42474;51.660;5.824;2023-01-28T16:43:04;103050.0;;;3.5;65.5
56594;BME280;42474;51.660;5.824;2023-01-28T16:48:04;103030.0;;;3.3;66.0
56594;BME280;42474;51.660;5.824;2023-01-28T16:53:17;103030.0;;;3.2;66.0
56594;BME280;42474;51.660;5.824;2023-01-28T16:58:04;103030.0;;;3.0;66.5
56594;BME280;42474;51.660;5.824;2023-01-28T17:03:04;103030.0;;;2.9;66.5
56594;BME280;42474;51.660;5.824;2023-01-28T17:08:04;103030.0;;;2.8;66.5
56594;BME280;42474;51.660;5.824;2023-01-28T17:13:04;103030.0;;;2.7;67.0
56594;BME280;42474;51.660;5.824;2023-01-28T17:18:04;103030.0;;;2.5;67.0
56594;BME280;42474;51.660;5.824;2023-01-28T17:23:04;103030.0;;;2.4;67.5
56594;BME280;42474;51.660;5.824;2023-01-28T17:28:04;103040.0;;;2.3;67.5
56594;BME280;42474;51.660;5.824;2023-01-28T17:33:04;103030.0;;;2.2;67.5
56594;BME280;42474;51.660;5.824;2023-01-28T17:38:04;103040.0;;;2.1;67.5
56594;BME280;42474;51.660;5.824;2023-01-28T17:43:04;103040.0;;;2.0;68.0
56594;BME280;42474;51.660;5.824;2023-01-28T17:48:04;103040.0;;;1.9;68.0
56594;BME280;42474;51.660;5.824;2023-01-28T17:53:04;103050.0;;;1.8;68.5
56594;BME280;42474;51.660;5.824;2023-01-28T17:58:04;103060.0;;;1.8;68.5
56594;BME280;42474;51.660;5.824;2023-01-28T18:03:04;103060.0;;;1.7;69.0
56594;BME280;42474;51.660;5.824;2023-01-28T18:08:04;103070.0;;;1.7;69.0
56594;BME280;42474;51.660;5.824;2023-01-28T18:13:04;103070.0;;;1.6;69.5
56594;BME280;42474;51.660;5.824;2023-01-28T18:18:04;103080.0;;;1.5;70.0
56594;BME280;42474;51.660;5.824;2023-01-28T18:23:04;103090.0;;;1.5;70.0
56594;BME280;42474;51.660;5.824;2023-01-28T18:28:04;103100.0;;;1.4;70.0
56594;BME280;42474;51.660;5.824;2023-01-28T18:33:04;103100.0;;;1.3;70.5
56594;BME280;42474;51.660;5.824;2023-01-28T18:38:04;103100.0;;;1.2;70.5
56594;BME280;42474;51.660;5.824;2023-01-28T18:43:04;103100.0;;;1.1;71.0
56594;BME280;42474;51.660;5.824;2023-01-28T18:48:04;103100.0;;;1.0;71.0
56594;BME280;42474;51.660;5.824;2023-01-28T18:53:04;103100.0;;;0.9;71.5
56594;BME280;42474;51.660;5.824;2023-01-28T18:58:04;103110.0;;;0.9;71.5
56594;BME280;42474;51.660;5.824;2023-01-28T19:08:05;103090.0;;;0.8;71.5
56594;BME280;42474;51.660;5.824;2023-01-28T19:13:04;103090.0;;;0.7;71.5
56594;BME280;42474;51.660;5.824;2023-01-28T19:18:04;103100.0;;;0.7;71.5
56594;BME280;42474;51.660;5.824;2023-01-28T19:23:04;103110.0;;;0.6;72.0
56594;BME280;42474;51.660;5.824;2023-01-28T19:28:04;103100.0;;;0.6;72.0
56594;BME280;42474;51.660;5.824;2023-01-28T19:33:04;103110.0;;;0.6;72.5
56594;BME280;42474;51.660;5.824;2023-01-28T19:38:04;103120.0;;;0.7;72.5
56594;BME280;42474;51.660;5.824;2023-01-28T19:43:04;103110.0;;;0.7;73.0
56594;BME280;42474;51.660;5.824;2023-01-28T19:48:04;103100.0;;;0.7;73.5
56594;BME280;42474;51.660;5.824;2023-01-28T19:53:04;103110.0;;;0.8;73.5
56594;BME280;42474;51.660;5.824;2023-01-28T19:58:04;103110.0;;;0.9;73.5
56594;BME280;42474;51.660;5.824;2023-01-28T20:03:04;103110.0;;;0.9;74.0
56594;BME280;42474;51.660;5.824;2023-01-28T20:08:04;103100.0;;;0.9;74.0
56594;BME280;42474;51.660;5.824;2023-01-28T20:13:04;103100.0;;;1.0;74.5
56594;BME280;42474;51.660;5.824;2023-01-28T20:18:04;103100.0;;;1.0;74.0
56594;BME280;42474;51.660;5.824;2023-01-28T20:23:04;103100.0;;;1.0;74.0
56594;BME280;42474;51.660;5.824;2023-01-28T20:28:04;103110.0;;;0.9;74.0
56594;BME280;42474;51.660;5.824;2023-01-28T20:33:04;103100.0;;;0.9;74.0
56594;BME280;42474;51.660;5.824;2023-01-28T20:38:04;103100.0;;;0.9;74.5
56594;BME280;42474;51.660;5.824;2023-01-28T20:43:04;103090.0;;;0.9;74.5
56594;BME280;42474;51.660;5.824;2023-01-28T20:48:04;103090.0;;;0.9;75.0
56594;BME280;42474;51.660;5.824;2023-01-28T20:53:04;103070.0;;;0.9;74.5
56594;BME280;42474;51.660;5.824;2023-01-28T20:58:04;103070.0;;;0.9;75.0
56594;BME280;42474;51.660;5.824;2023-01-28T21:03:04;103070.0;;;0.9;75.5
56594;BME280;42474;51.660;5.824;2023-01-28T21:13:04;103070.0;;;0.8;75.0
56594;BME280;42474;51.660;5.824;2023-01-28T21:18:04;103060.0;;;0.8;75.0
56594;BME280;42474;51.660;5.824;2023-01-28T21:23:04;103060.0;;;0.7;75.0
56594;BME280;42474;51.660;5.824;2023-01-28T21:28:04;103070.0;;;0.7;74.5
56594;BME280;42474;51.660;5.824;2023-01-28T21:33:04;103070.0;;;0.6;74.5
56594;BME280;42474;51.660;5.824;2023-01-28T21:38:05;103060.0;;;0.6;75.0
56594;BME280;42474;51.660;5.824;2023-01-28T21:43:04;103060.0;;;0.6;75.0
56594;BME280;42474;51.660;5.824;2023-01-28T21:48:04;103070.0;;;0.6;75.0
56594;BME280;42474;51.660;5.824;2023-01-28T21:53:04;103060.0;;;0.5;75.0
56594;BME280;42474;51.660;5.824;2023-01-28T21:58:04;103070.0;;;0.5;75.0
56594;BME280;42474;51.660;5.824;2023-01-28T22:03:04;103080.0;;;0.5;76.5
56594;BME280;42474;51.660;5.824;2023-01-28T22:08:04;103090.0;;;0.5;76.0
56594;BME280;42474;51.660;5.824;2023-01-28T22:13:04;103090.0;;;0.5;76.0
56594;BME280;42474;51.660;5.824;2023-01-28T22:18:04;103080.0;;;0.5;76.0
56594;BME280;42474;51.660;5.824;2023-01-28T22:23:04;103070.0;;;0.5;76.5
56594;BME280;42474;51.660;5.824;2023-01-28T22:28:04;103070.0;;;0.6;76.5
56594;BME280;42474;51.660;5.824;2023-01-28T22:33:04;103060.0;;;0.6;76.5
56594;BME280;42474;51.660;5.824;2023-01-28T22:38:04;103060.0;;;0.6;76.5
56594;BME280;42474;51.660;5.824;2023-01-28T22:43:05;103050.0;;;0.6;76.5
56594;BME280;42474;51.660;5.824;2023-01-28T22:48:04;103060.0;;;0.6;76.5
56594;BME280;42474;51.660;5.824;2023-01-28T22:53:04;103070.0;;;0.6;76.5
56594;BME280;42474;51.660;5.824;2023-01-28T22:58:04;103070.0;;;0.7;76.5
56594;BME280;42474;51.660;5.824;2023-01-28T23:03:04;103060.0;;;0.8;76.5
56594;BME280;42474;51.660;5.824;2023-01-28T23:08:05;103040.0;;;0.8;76.5
56594;BME280;42474;51.660;5.824;2023-01-28T23:13:04;103030.0;;;0.8;76.5
56594;BME280;42474;51.660;5.824;2023-01-28T23:18:18;103030.0;;;0.9;76.5
56594;BME280;42474;51.660;5.824;2023-01-28T23:23:04;103010.0;;;0.9;76.5
56594;BME280;42474;51.660;5.824;2023-01-28T23:28:04;103010.0;;;0.9;76.5
56594;BME280;42474;51.660;5.824;2023-01-28T23:33:04;103000.0;;;0.9;76.5
56594;BME280;42474;51.660;5.824;2023-01-28T23:38:04;103010.0;;;0.9;76.5
56594;BME280;42474;51.660;5.824;2023-01-28T23:43:04;103020.0;;;0.9;76.0
56594;BME280;42474;51.660;5.824;2023-01-28T23:48:04;103020.0;;;0.9;76.5
56594;BME280;42474;51.660;5.824;2023-01-28T23:53:04;103020.0;;;0.9;76.5
56594;BME280;42474;51.660;5.824;2023-01-28T23:58:04;103020.0;;;0.9;76.0
